Pagrindinis puslapis
METAR-TAF:

METAR-TAF

Oro uostai :

Holzdorf, Vokietija

platuma: 51-46N, ilguma: 013-11E, Aukštis: 79 m

Dabartinis oras

Ataskaita buvo paskelbta 30 minutes, ne 00:20 UTC
Vėjas 4 kt iš Šiaurės Vakarų
Temperatūra 1°C
Drėgmė 75%
Slėgis 1018 hPa
Matomumas: 7000 m

METAR: ETSH 290020Z AUTO 31004KT 7000 // ////// 01/M03 Q1018 ///

Laikas: 01:50 (00:50 UTC)


TAF: trūkstamas

Orai ataskaitas ir orų prognozės (METAR, TAF).

turimą stotys yra geltonos ir raudonos taškus žemėlapyje.

Perkelti pele per norėdami pamatyti stoties vardą.

Tada spustelėkite, norėdami matyti oro stebėjimo ir prognozės.

Norėdami pakeisti žemėlapį: spustelėkite ant žalios mygtukų su juodo kryžiaus žemyn,; žalią mygtuką su brūkšneliu, jei norite nutolinti; arba žalių rodyklių gretimoms žemėlapius.


METAR-TAF: